Terminal Aerodrome Forecast
Issued by NWS

Home | Current Version | Previous Version | Text Only | Print | Product List | Glossary On
Versions: 1 2 3 4 5 6 7 8 9 10 11 12 13 14 15 16 17
000
FTAK31 PAJN 282300
TAFAGY
TAF
PAGY 282330Z 2900/2924 21005KT P6SM -RA SCT010 BKN050 OVC080
     FM290600 VRB03KT 5SM -RA BR SCT020 OVC050
     FM291500 VRB03KT P6SM -RA SCT020 OVC050
     FM292100 21006KT P6SM -RA SCT020 OVC050
      AMD LTD TO CLD VIS AND WIND=

USA.gov is the U.S. government's official web portal to all federal, state and local government web resources and services.